sensor_id;sensor_type;location;lat;lon;timestamp;P1;durP1;ratioP1;P2;durP2;ratioP2
8654;SDS011;13500;52.514;13.462;2024-03-22T00:01:07;13.60;;;11.70;;
8654;SDS011;13500;52.514;13.462;2024-03-22T00:03:36;13.23;;;11.43;;
8654;SDS011;13500;52.514;13.462;2024-03-22T00:06:06;13.33;;;11.20;;
8654;SDS011;13500;52.514;13.462;2024-03-22T00:08:33;12.83;;;11.33;;
8654;SDS011;13500;52.514;13.462;2024-03-22T00:11:01;12.90;;;11.60;;
8654;SDS011;13500;52.514;13.462;2024-03-22T00:13:28;13.30;;;11.83;;
8654;SDS011;13500;52.514;13.462;2024-03-22T00:15:56;12.50;;;11.20;;
8654;SDS011;13500;52.514;13.462;2024-03-22T00:18:24;13.43;;;12.03;;
8654;SDS011;13500;52.514;13.462;2024-03-22T00:20:53;13.77;;;12.17;;
8654;SDS011;13500;52.514;13.462;2024-03-22T00:23:20;14.33;;;12.27;;
8654;SDS011;13500;52.514;13.462;2024-03-22T00:25:48;13.80;;;12.27;;
8654;SDS011;13500;52.514;13.462;2024-03-22T00:28:17;13.90;;;12.00;;
8654;SDS011;13500;52.514;13.462;2024-03-22T00:30:49;13.00;;;11.40;;
8654;SDS011;13500;52.514;13.462;2024-03-22T00:33:15;13.37;;;11.67;;
8654;SDS011;13500;52.514;13.462;2024-03-22T00:35:43;13.20;;;11.70;;
8654;SDS011;13500;52.514;13.462;2024-03-22T00:38:11;13.63;;;11.80;;
8654;SDS011;13500;52.514;13.462;2024-03-22T00:40:44;13.27;;;11.87;;
8654;SDS011;13500;52.514;13.462;2024-03-22T00:43:12;13.87;;;12.47;;
8654;SDS011;13500;52.514;13.462;2024-03-22T00:45:42;14.00;;;11.90;;
8654;SDS011;13500;52.514;13.462;2024-03-22T00:48:10;14.00;;;12.60;;
8654;SDS011;13500;52.514;13.462;2024-03-22T00:50:39;14.13;;;12.47;;
8654;SDS011;13500;52.514;13.462;2024-03-22T00:53:05;13.43;;;12.03;;
8654;SDS011;13500;52.514;13.462;2024-03-22T00:55:35;13.80;;;12.30;;
8654;SDS011;13500;52.514;13.462;2024-03-22T00:58:02;14.13;;;12.53;;
8654;SDS011;13500;52.514;13.462;2024-03-22T01:00:31;13.50;;;12.10;;
8654;SDS011;13500;52.514;13.462;2024-03-22T01:03:01;12.60;;;11.27;;
8654;SDS011;13500;52.514;13.462;2024-03-22T01:05:29;13.87;;;12.47;;
8654;SDS011;13500;52.514;13.462;2024-03-22T01:07:58;13.67;;;12.10;;
8654;SDS011;13500;52.514;13.462;2024-03-22T01:10:29;13.40;;;12.00;;
8654;SDS011;13500;52.514;13.462;2024-03-22T01:13:00;14.47;;;13.03;;
8654;SDS011;13500;52.514;13.462;2024-03-22T01:15:29;14.57;;;12.83;;
8654;SDS011;13500;52.514;13.462;2024-03-22T01:17:57;15.17;;;12.57;;
8654;SDS011;13500;52.514;13.462;2024-03-22T01:20:24;14.13;;;12.43;;
8654;SDS011;13500;52.514;13.462;2024-03-22T01:22:51;14.70;;;13.03;;
8654;SDS011;13500;52.514;13.462;2024-03-22T01:25:19;14.17;;;12.67;;
8654;SDS011;13500;52.514;13.462;2024-03-22T01:27:46;14.90;;;13.27;;
8654;SDS011;13500;52.514;13.462;2024-03-22T01:30:16;15.03;;;13.17;;
8654;SDS011;13500;52.514;13.462;2024-03-22T01:32:44;17.37;;;14.23;;
8654;SDS011;13500;52.514;13.462;2024-03-22T01:35:13;14.90;;;13.23;;
8654;SDS011;13500;52.514;13.462;2024-03-22T01:37:40;15.63;;;13.53;;
8654;SDS011;13500;52.514;13.462;2024-03-22T01:40:08;18.33;;;14.60;;
8654;SDS011;13500;52.514;13.462;2024-03-22T01:42:36;18.17;;;14.27;;
8654;SDS011;13500;52.514;13.462;2024-03-22T01:45:04;15.73;;;13.70;;
8654;SDS011;13500;52.514;13.462;2024-03-22T01:47:39;17.13;;;13.73;;
8654;SDS011;13500;52.514;13.462;2024-03-22T01:50:07;16.27;;;14.13;;
8654;SDS011;13500;52.514;13.462;2024-03-22T01:52:34;18.20;;;14.60;;
8654;SDS011;13500;52.514;13.462;2024-03-22T01:55:02;20.23;;;16.10;;
8654;SDS011;13500;52.514;13.462;2024-03-22T01:57:30;21.20;;;17.07;;
8654;SDS011;13500;52.514;13.462;2024-03-22T01:59:58;23.67;;;17.37;;
8654;SDS011;13500;52.514;13.462;2024-03-22T02:02:25;18.80;;;14.43;;
8654;SDS011;13500;52.514;13.462;2024-03-22T02:04:55;20.17;;;15.03;;
8654;SDS011;13500;52.514;13.462;2024-03-22T02:07:22;18.77;;;14.63;;
8654;SDS011;13500;52.514;13.462;2024-03-22T02:09:50;17.23;;;14.50;;
8654;SDS011;13500;52.514;13.462;2024-03-22T02:12:18;18.63;;;14.20;;
8654;SDS011;13500;52.514;13.462;2024-03-22T02:14:48;17.33;;;14.27;;
8654;SDS011;13500;52.514;13.462;2024-03-22T02:17:16;19.27;;;14.53;;
8654;SDS011;13500;52.514;13.462;2024-03-22T02:19:44;17.37;;;14.73;;
8654;SDS011;13500;52.514;13.462;2024-03-22T02:22:12;18.37;;;14.47;;
8654;SDS011;13500;52.514;13.462;2024-03-22T02:24:43;19.10;;;15.00;;
8654;SDS011;13500;52.514;13.462;2024-03-22T02:27:11;17.13;;;13.47;;
8654;SDS011;13500;52.514;13.462;2024-03-22T02:29:39;18.20;;;14.60;;
8654;SDS011;13500;52.514;13.462;2024-03-22T02:32:06;16.77;;;14.33;;
8654;SDS011;13500;52.514;13.462;2024-03-22T02:34:37;18.57;;;14.37;;
8654;SDS011;13500;52.514;13.462;2024-03-22T02:37:04;17.20;;;13.80;;
8654;SDS011;13500;52.514;13.462;2024-03-22T02:39:32;16.57;;;12.97;;
8654;SDS011;13500;52.514;13.462;2024-03-22T02:42:00;19.33;;;14.47;;
8654;SDS011;13500;52.514;13.462;2024-03-22T02:44:28;21.23;;;14.73;;
8654;SDS011;13500;52.514;13.462;2024-03-22T02:46:54;17.27;;;14.27;;
8654;SDS011;13500;52.514;13.462;2024-03-22T02:49:25;18.70;;;14.40;;
8654;SDS011;13500;52.514;13.462;2024-03-22T02:51:51;18.53;;;13.87;;
8654;SDS011;13500;52.514;13.462;2024-03-22T02:54:19;16.70;;;14.30;;
8654;SDS011;13500;52.514;13.462;2024-03-22T02:56:51;16.83;;;13.53;;
8654;SDS011;13500;52.514;13.462;2024-03-22T02:59:19;17.00;;;13.33;;
8654;SDS011;13500;52.514;13.462;2024-03-22T03:01:47;16.87;;;13.70;;
8654;SDS011;13500;52.514;13.462;2024-03-22T03:04:14;17.63;;;13.40;;
8654;SDS011;13500;52.514;13.462;2024-03-22T03:06:40;16.87;;;13.13;;
8654;SDS011;13500;52.514;13.462;2024-03-22T03:09:07;17.73;;;13.13;;
8654;SDS011;13500;52.514;13.462;2024-03-22T03:11:34;17.60;;;13.20;;
8654;SDS011;13500;52.514;13.462;2024-03-22T03:14:01;16.40;;;13.77;;
8654;SDS011;13500;52.514;13.462;2024-03-22T03:16:28;16.93;;;12.77;;
8654;SDS011;13500;52.514;13.462;2024-03-22T03:18:55;16.80;;;12.97;;
8654;SDS011;13500;52.514;13.462;2024-03-22T03:21:24;17.13;;;13.63;;
8654;SDS011;13500;52.514;13.462;2024-03-22T03:23:51;21.97;;;16.73;;
8654;SDS011;13500;52.514;13.462;2024-03-22T03:26:19;16.10;;;13.23;;
8654;SDS011;13500;52.514;13.462;2024-03-22T03:28:47;24.37;;;14.43;;
8654;SDS011;13500;52.514;13.462;2024-03-22T03:31:14;18.20;;;14.17;;
8654;SDS011;13500;52.514;13.462;2024-03-22T03:33:43;19.80;;;15.60;;
8654;SDS011;13500;52.514;13.462;2024-03-22T03:36:10;18.67;;;14.40;;
8654;SDS011;13500;52.514;13.462;2024-03-22T03:38:39;15.10;;;12.93;;
8654;SDS011;13500;52.514;13.462;2024-03-22T03:41:05;20.00;;;16.63;;
8654;SDS011;13500;52.514;13.462;2024-03-22T03:43:32;18.97;;;15.27;;
8654;SDS011;13500;52.514;13.462;2024-03-22T03:45:58;20.60;;;15.13;;
8654;SDS011;13500;52.514;13.462;2024-03-22T03:48:26;25.00;;;21.70;;
8654;SDS011;13500;52.514;13.462;2024-03-22T03:50:54;32.43;;;24.43;;
8654;SDS011;13500;52.514;13.462;2024-03-22T03:53:25;17.67;;;14.13;;
8654;SDS011;13500;52.514;13.462;2024-03-22T03:55:51;19.37;;;17.00;;
8654;SDS011;13500;52.514;13.462;2024-03-22T03:58:18;15.70;;;12.83;;
8654;SDS011;13500;52.514;13.462;2024-03-22T04:00:44;21.03;;;17.77;;
8654;SDS011;13500;52.514;13.462;2024-03-22T04:03:14;17.93;;;13.33;;
8654;SDS011;13500;52.514;13.462;2024-03-22T04:05:40;16.67;;;12.77;;
8654;SDS011;13500;52.514;13.462;2024-03-22T04:08:09;16.23;;;12.80;;
8654;SDS011;13500;52.514;13.462;2024-03-22T04:10:37;17.03;;;13.00;;
8654;SDS011;13500;52.514;13.462;2024-03-22T04:13:05;17.73;;;14.07;;
8654;SDS011;13500;52.514;13.462;2024-03-22T04:15:33;16.30;;;12.43;;
8654;SDS011;13500;52.514;13.462;2024-03-22T04:18:02;26.57;;;16.80;;
8654;SDS011;13500;52.514;13.462;2024-03-22T04:20:32;13.90;;;12.03;;
8654;SDS011;13500;52.514;13.462;2024-03-22T04:23:01;20.43;;;13.73;;
8654;SDS011;13500;52.514;13.462;2024-03-22T04:25:29;47.33;;;23.53;;
8654;SDS011;13500;52.514;13.462;2024-03-22T04:27:57;24.70;;;15.83;;
8654;SDS011;13500;52.514;13.462;2024-03-22T04:30:24;17.47;;;12.87;;
8654;SDS011;13500;52.514;13.462;2024-03-22T04:32:52;66.27;;;30.33;;
8654;SDS011;13500;52.514;13.462;2024-03-22T04:35:18;29.77;;;17.20;;
8654;SDS011;13500;52.514;13.462;2024-03-22T04:37:45;19.10;;;13.13;;
8654;SDS011;13500;52.514;13.462;2024-03-22T04:40:13;42.97;;;22.00;;
8654;SDS011;13500;52.514;13.462;2024-03-22T04:42:43;19.90;;;13.23;;
8654;SDS011;13500;52.514;13.462;2024-03-22T04:45:12;19.47;;;13.37;;
8654;SDS011;13500;52.514;13.462;2024-03-22T04:47:39;16.50;;;12.47;;
8654;SDS011;13500;52.514;13.462;2024-03-22T04:50:07;24.60;;;13.40;;
8654;SDS011;13500;52.514;13.462;2024-03-22T04:52:34;27.33;;;16.17;;
8654;SDS011;13500;52.514;13.462;2024-03-22T04:55:01;16.00;;;12.20;;
8654;SDS011;13500;52.514;13.462;2024-03-22T04:57:28;22.43;;;14.77;;
8654;SDS011;13500;52.514;13.462;2024-03-22T04:59:57;25.90;;;14.97;;
8654;SDS011;13500;52.514;13.462;2024-03-22T05:02:23;23.63;;;14.47;;
8654;SDS011;13500;52.514;13.462;2024-03-22T05:04:51;20.57;;;13.83;;
8654;SDS011;13500;52.514;13.462;2024-03-22T05:07:18;15.80;;;12.10;;
8654;SDS011;13500;52.514;13.462;2024-03-22T05:09:45;19.27;;;12.80;;
8654;SDS011;13500;52.514;13.462;2024-03-22T05:12:12;19.63;;;12.33;;
8654;SDS011;13500;52.514;13.462;2024-03-22T05:14:40;14.70;;;11.50;;
8654;SDS011;13500;52.514;13.462;2024-03-22T05:17:07;17.67;;;12.10;;
8654;SDS011;13500;52.514;13.462;2024-03-22T05:19:35;17.47;;;12.20;;
8654;SDS011;13500;52.514;13.462;2024-03-22T05:22:01;19.23;;;13.73;;
8654;SDS011;13500;52.514;13.462;2024-03-22T05:24:31;18.90;;;12.60;;
8654;SDS011;13500;52.514;13.462;2024-03-22T05:26:59;18.17;;;12.60;;
8654;SDS011;13500;52.514;13.462;2024-03-22T05:29:28;16.67;;;12.43;;
8654;SDS011;13500;52.514;13.462;2024-03-22T05:31:56;23.20;;;15.27;;
8654;SDS011;13500;52.514;13.462;2024-03-22T05:34:25;24.43;;;15.60;;
8654;SDS011;13500;52.514;13.462;2024-03-22T05:36:52;15.73;;;12.63;;
8654;SDS011;13500;52.514;13.462;2024-03-22T05:39:20;20.90;;;15.07;;
8654;SDS011;13500;52.514;13.462;2024-03-22T05:41:48;19.17;;;14.37;;
8654;SDS011;13500;52.514;13.462;2024-03-22T05:44:16;17.17;;;12.57;;
8654;SDS011;13500;52.514;13.462;2024-03-22T05:46:42;21.53;;;14.57;;
8654;SDS011;13500;52.514;13.462;2024-03-22T05:49:09;20.33;;;13.87;;
8654;SDS011;13500;52.514;13.462;2024-03-22T05:51:38;23.03;;;15.77;;
8654;SDS011;13500;52.514;13.462;2024-03-22T05:54:09;18.37;;;14.17;;
8654;SDS011;13500;52.514;13.462;2024-03-22T05:56:38;21.23;;;13.77;;
8654;SDS011;13500;52.514;13.462;2024-03-22T05:59:06;22.57;;;13.90;;
8654;SDS011;13500;52.514;13.462;2024-03-22T06:01:32;16.17;;;12.80;;
8654;SDS011;13500;52.514;13.462;2024-03-22T06:04:00;18.93;;;13.67;;
8654;SDS011;13500;52.514;13.462;2024-03-22T06:06:26;26.77;;;17.90;;
8654;SDS011;13500;52.514;13.462;2024-03-22T06:08:56;24.10;;;15.90;;
8654;SDS011;13500;52.514;13.462;2024-03-22T06:11:26;14.83;;;12.23;;
8654;SDS011;13500;52.514;13.462;2024-03-22T06:13:53;18.00;;;13.57;;
8654;SDS011;13500;52.514;13.462;2024-03-22T06:16:19;16.27;;;12.63;;
8654;SDS011;13500;52.514;13.462;2024-03-22T06:18:47;14.50;;;12.10;;
8654;SDS011;13500;52.514;13.462;2024-03-22T06:21:13;16.43;;;12.03;;
8654;SDS011;13500;52.514;13.462;2024-03-22T06:23:41;19.43;;;11.60;;
8654;SDS011;13500;52.514;13.462;2024-03-22T06:26:08;19.60;;;12.07;;
8654;SDS011;13500;52.514;13.462;2024-03-22T06:28:36;17.07;;;11.67;;
8654;SDS011;13500;52.514;13.462;2024-03-22T06:31:03;15.97;;;11.93;;
8654;SDS011;13500;52.514;13.462;2024-03-22T06:33:31;18.73;;;11.93;;
8654;SDS011;13500;52.514;13.462;2024-03-22T06:35:57;16.70;;;12.73;;
8654;SDS011;13500;52.514;13.462;2024-03-22T06:38:28;15.40;;;11.73;;
8654;SDS011;13500;52.514;13.462;2024-03-22T06:40:58;14.93;;;11.63;;
8654;SDS011;13500;52.514;13.462;2024-03-22T06:43:30;14.50;;;11.83;;
8654;SDS011;13500;52.514;13.462;2024-03-22T06:45:56;15.93;;;11.90;;
8654;SDS011;13500;52.514;13.462;2024-03-22T06:48:23;16.10;;;11.33;;
8654;SDS011;13500;52.514;13.462;2024-03-22T06:50:52;15.33;;;11.70;;
8654;SDS011;13500;52.514;13.462;2024-03-22T06:53:22;14.27;;;11.07;;
8654;SDS011;13500;52.514;13.462;2024-03-22T06:55:49;16.10;;;12.27;;
8654;SDS011;13500;52.514;13.462;2024-03-22T06:58:17;14.87;;;11.73;;
8654;SDS011;13500;52.514;13.462;2024-03-22T07:00:47;13.93;;;11.50;;
8654;SDS011;13500;52.514;13.462;2024-03-22T07:03:16;14.53;;;12.13;;
8654;SDS011;13500;52.514;13.462;2024-03-22T07:05:42;16.17;;;12.33;;
8654;SDS011;13500;52.514;13.462;2024-03-22T07:08:10;15.13;;;12.17;;
8654;SDS011;13500;52.514;13.462;2024-03-22T07:10:38;18.77;;;12.83;;
8654;SDS011;13500;52.514;13.462;2024-03-22T07:13:06;15.93;;;12.43;;
8654;SDS011;13500;52.514;13.462;2024-03-22T07:15:34;17.00;;;12.30;;
8654;SDS011;13500;52.514;13.462;2024-03-22T07:18:03;16.63;;;12.40;;
8654;SDS011;13500;52.514;13.462;2024-03-22T07:20:33;17.37;;;12.90;;
8654;SDS011;13500;52.514;13.462;2024-03-22T07:23:01;15.17;;;12.60;;
8654;SDS011;13500;52.514;13.462;2024-03-22T07:25:29;18.73;;;13.80;;
8654;SDS011;13500;52.514;13.462;2024-03-22T07:27:56;18.77;;;14.00;;
8654;SDS011;13500;52.514;13.462;2024-03-22T07:30:24;18.67;;;13.83;;
8654;SDS011;13500;52.514;13.462;2024-03-22T07:32:55;16.90;;;13.83;;
8654;SDS011;13500;52.514;13.462;2024-03-22T07:35:31;17.97;;;14.10;;
8654;SDS011;13500;52.514;13.462;2024-03-22T07:37:58;18.77;;;13.83;;
8654;SDS011;13500;52.514;13.462;2024-03-22T07:40:25;18.10;;;13.53;;
8654;SDS011;13500;52.514;13.462;2024-03-22T07:42:53;17.87;;;14.13;;
8654;SDS011;13500;52.514;13.462;2024-03-22T07:45:24;20.40;;;14.47;;
8654;SDS011;13500;52.514;13.462;2024-03-22T07:47:54;19.53;;;14.30;;
8654;SDS011;13500;52.514;13.462;2024-03-22T07:50:20;17.57;;;14.67;;
8654;SDS011;13500;52.514;13.462;2024-03-22T07:52:50;19.07;;;14.07;;
8654;SDS011;13500;52.514;13.462;2024-03-22T07:55:16;18.70;;;14.47;;
8654;SDS011;13500;52.514;13.462;2024-03-22T07:57:46;19.70;;;14.67;;
8654;SDS011;13500;52.514;13.462;2024-03-22T08:00:14;19.40;;;14.47;;
8654;SDS011;13500;52.514;13.462;2024-03-22T08:02:51;18.17;;;15.20;;
8654;SDS011;13500;52.514;13.462;2024-03-22T08:05:18;17.33;;;14.90;;
8654;SDS011;13500;52.514;13.462;2024-03-22T08:07:46;22.53;;;16.03;;
8654;SDS011;13500;52.514;13.462;2024-03-22T08:10:15;19.63;;;15.33;;
8654;SDS011;13500;52.514;13.462;2024-03-22T08:12:44;21.07;;;15.43;;
8654;SDS011;13500;52.514;13.462;2024-03-22T08:15:11;20.17;;;15.03;;
8654;SDS011;13500;52.514;13.462;2024-03-22T08:17:40;19.70;;;15.90;;
8654;SDS011;13500;52.514;13.462;2024-03-22T08:20:10;19.20;;;15.67;;
8654;SDS011;13500;52.514;13.462;2024-03-22T08:22:41;20.57;;;15.90;;
8654;SDS011;13500;52.514;13.462;2024-03-22T08:25:07;18.30;;;15.30;;
8654;SDS011;13500;52.514;13.462;2024-03-22T08:27:37;22.33;;;15.63;;
8654;SDS011;13500;52.514;13.462;2024-03-22T08:30:05;20.20;;;16.30;;
8654;SDS011;13500;52.514;13.462;2024-03-22T08:32:35;19.00;;;15.67;;
8654;SDS011;13500;52.514;13.462;2024-03-22T08:35:03;26.00;;;16.40;;
8654;SDS011;13500;52.514;13.462;2024-03-22T08:37:32;19.47;;;15.53;;
8654;SDS011;13500;52.514;13.462;2024-03-22T08:40:00;18.80;;;15.73;;
8654;SDS011;13500;52.514;13.462;2024-03-22T08:42:32;20.97;;;16.30;;
8654;SDS011;13500;52.514;13.462;2024-03-22T08:45:00;21.50;;;16.33;;
8654;SDS011;13500;52.514;13.462;2024-03-22T08:47:30;19.80;;;16.30;;
8654;SDS011;13500;52.514;13.462;2024-03-22T08:49:59;20.70;;;15.60;;
8654;SDS011;13500;52.514;13.462;2024-03-22T08:52:28;26.17;;;16.37;;
8654;SDS011;13500;52.514;13.462;2024-03-22T08:54:59;21.03;;;15.70;;
8654;SDS011;13500;52.514;13.462;2024-03-22T08:57:34;20.87;;;16.13;;
8654;SDS011;13500;52.514;13.462;2024-03-22T09:00:03;22.63;;;16.60;;
8654;SDS011;13500;52.514;13.462;2024-03-22T09:02:35;22.60;;;16.43;;
8654;SDS011;13500;52.514;13.462;2024-03-22T09:05:02;19.33;;;15.73;;
8654;SDS011;13500;52.514;13.462;2024-03-22T09:07:30;19.93;;;15.80;;
8654;SDS011;13500;52.514;13.462;2024-03-22T09:09:57;19.17;;;15.80;;
8654;SDS011;13500;52.514;13.462;2024-03-22T09:12:26;22.87;;;16.30;;
8654;SDS011;13500;52.514;13.462;2024-03-22T09:14:52;21.03;;;16.17;;
8654;SDS011;13500;52.514;13.462;2024-03-22T09:17:29;21.30;;;15.50;;
8654;SDS011;13500;52.514;13.462;2024-03-22T09:19:56;20.03;;;15.30;;
8654;SDS011;13500;52.514;13.462;2024-03-22T09:22:23;20.80;;;15.27;;
8654;SDS011;13500;52.514;13.462;2024-03-22T09:24:53;18.27;;;14.53;;
8654;SDS011;13500;52.514;13.462;2024-03-22T09:27:23;18.97;;;16.37;;
8654;SDS011;13500;52.514;13.462;2024-03-22T09:29:50;19.17;;;15.97;;
8654;SDS011;13500;52.514;13.462;2024-03-22T09:32:18;18.57;;;15.70;;
8654;SDS011;13500;52.514;13.462;2024-03-22T09:34:49;19.40;;;15.97;;
8654;SDS011;13500;52.514;13.462;2024-03-22T09:37:17;21.40;;;15.73;;
8654;SDS011;13500;52.514;13.462;2024-03-22T09:39:49;23.67;;;17.53;;
8654;SDS011;13500;52.514;13.462;2024-03-22T09:42:19;19.33;;;15.50;;
8654;SDS011;13500;52.514;13.462;2024-03-22T09:45:16;20.53;;;14.30;;
8654;SDS011;13500;52.514;13.462;2024-03-22T09:47:44;18.47;;;15.13;;
8654;SDS011;13500;52.514;13.462;2024-03-22T09:50:15;17.57;;;15.00;;
8654;SDS011;13500;52.514;13.462;2024-03-22T09:52:45;17.50;;;14.40;;
8654;SDS011;13500;52.514;13.462;2024-03-22T09:55:11;20.93;;;15.50;;
8654;SDS011;13500;52.514;13.462;2024-03-22T09:57:41;18.37;;;15.13;;
8654;SDS011;13500;52.514;13.462;2024-03-22T10:00:09;17.83;;;15.30;;
8654;SDS011;13500;52.514;13.462;2024-03-22T10:02:39;21.47;;;15.67;;
8654;SDS011;13500;52.514;13.462;2024-03-22T10:05:09;19.57;;;15.57;;
8654;SDS011;13500;52.514;13.462;2024-03-22T10:07:40;19.23;;;15.43;;
8654;SDS011;13500;52.514;13.462;2024-03-22T10:10:09;18.23;;;14.13;;
8654;SDS011;13500;52.514;13.462;2024-03-22T10:12:39;20.27;;;15.73;;
8654;SDS011;13500;52.514;13.462;2024-03-22T10:15:05;16.97;;;14.63;;
8654;SDS011;13500;52.514;13.462;2024-03-22T10:17:35;18.03;;;15.03;;
8654;SDS011;13500;52.514;13.462;2024-03-22T10:20:06;18.17;;;14.67;;
8654;SDS011;13500;52.514;13.462;2024-03-22T10:22:47;14.97;;;13.30;;
8654;SDS011;13500;52.514;13.462;2024-03-22T10:25:14;16.63;;;14.20;;
8654;SDS011;13500;52.514;13.462;2024-03-22T10:27:44;19.83;;;14.20;;
8654;SDS011;13500;52.514;13.462;2024-03-22T10:30:21;16.13;;;13.43;;
8654;SDS011;13500;52.514;13.462;2024-03-22T10:32:52;17.57;;;13.73;;
8654;SDS011;13500;52.514;13.462;2024-03-22T10:35:20;16.80;;;13.57;;
8654;SDS011;13500;52.514;13.462;2024-03-22T10:37:59;16.90;;;13.33;;
8654;SDS011;13500;52.514;13.462;2024-03-22T10:40:30;17.10;;;13.77;;
8654;SDS011;13500;52.514;13.462;2024-03-22T10:43:17;16.67;;;13.70;;
8654;SDS011;13500;52.514;13.462;2024-03-22T10:48:40;19.80;;;13.27;;
8654;SDS011;13500;52.514;13.462;2024-03-22T10:51:14;15.13;;;12.73;;
8654;SDS011;13500;52.514;13.462;2024-03-22T10:56:54;15.50;;;13.07;;
8654;SDS011;13500;52.514;13.462;2024-03-22T10:59:23;19.00;;;13.47;;
8654;SDS011;13500;52.514;13.462;2024-03-22T11:01:50;14.20;;;12.70;;
8654;SDS011;13500;52.514;13.462;2024-03-22T11:04:21;17.93;;;12.50;;
8654;SDS011;13500;52.514;13.462;2024-03-22T11:06:52;14.87;;;12.83;;
8654;SDS011;13500;52.514;13.462;2024-03-22T11:09:23;17.60;;;13.00;;
8654;SDS011;13500;52.514;13.462;2024-03-22T11:11:57;14.67;;;12.97;;
8654;SDS011;13500;52.514;13.462;2024-03-22T11:14:27;15.23;;;12.80;;
8654;SDS011;13500;52.514;13.462;2024-03-22T11:16:57;16.03;;;12.47;;
8654;SDS011;13500;52.514;13.462;2024-03-22T11:19:27;15.73;;;12.43;;
8654;SDS011;13500;52.514;13.462;2024-03-22T11:21:59;15.27;;;12.77;;
8654;SDS011;13500;52.514;13.462;2024-03-22T11:24:30;16.80;;;13.03;;
8654;SDS011;13500;52.514;13.462;2024-03-22T11:27:00;13.37;;;11.97;;
8654;SDS011;13500;52.514;13.462;2024-03-22T11:29:31;14.30;;;12.70;;
8654;SDS011;13500;52.514;13.462;2024-03-22T11:32:00;16.87;;;12.77;;
8654;SDS011;13500;52.514;13.462;2024-03-22T11:34:30;17.27;;;13.13;;
8654;SDS011;13500;52.514;13.462;2024-03-22T11:37:01;15.27;;;12.50;;
8654;SDS011;13500;52.514;13.462;2024-03-22T11:39:44;17.17;;;12.47;;
8654;SDS011;13500;52.514;13.462;2024-03-22T11:42:12;16.37;;;12.53;;
8654;SDS011;13500;52.514;13.462;2024-03-22T11:44:44;17.63;;;12.80;;
8654;SDS011;13500;52.514;13.462;2024-03-22T11:47:12;14.77;;;12.83;;
8654;SDS011;13500;52.514;13.462;2024-03-22T11:49:42;16.73;;;12.73;;
8654;SDS011;13500;52.514;13.462;2024-03-22T11:52:12;19.50;;;12.07;;
8654;SDS011;13500;52.514;13.462;2024-03-22T11:54:40;17.27;;;12.47;;
8654;SDS011;13500;52.514;13.462;2024-03-22T11:57:12;15.53;;;12.07;;
8654;SDS011;13500;52.514;13.462;2024-03-22T11:59:43;16.87;;;13.07;;
8654;SDS011;13500;52.514;13.462;2024-03-22T12:02:12;15.67;;;12.13;;
8654;SDS011;13500;52.514;13.462;2024-03-22T12:04:41;16.77;;;13.53;;
8654;SDS011;13500;52.514;13.462;2024-03-22T12:07:10;20.77;;;13.73;;
8654;SDS011;13500;52.514;13.462;2024-03-22T12:09:39;22.57;;;15.70;;
8654;SDS011;13500;52.514;13.462;2024-03-22T12:12:07;25.23;;;15.77;;
8654;SDS011;13500;52.514;13.462;2024-03-22T12:14:40;23.90;;;16.90;;
8654;SDS011;13500;52.514;13.462;2024-03-22T12:17:08;24.23;;;16.60;;
8654;SDS011;13500;52.514;13.462;2024-03-22T12:19:35;24.50;;;16.50;;
8654;SDS011;13500;52.514;13.462;2024-03-22T12:22:02;25.50;;;16.73;;
8654;SDS011;13500;52.514;13.462;2024-03-22T12:24:31;24.47;;;17.00;;
8654;SDS011;13500;52.514;13.462;2024-03-22T12:26:59;25.47;;;16.40;;
8654;SDS011;13500;52.514;13.462;2024-03-22T12:29:27;25.20;;;18.13;;
8654;SDS011;13500;52.514;13.462;2024-03-22T12:31:55;29.90;;;18.40;;
8654;SDS011;13500;52.514;13.462;2024-03-22T12:34:26;28.63;;;18.47;;
8654;SDS011;13500;52.514;13.462;2024-03-22T12:36:55;30.93;;;19.07;;
8654;SDS011;13500;52.514;13.462;2024-03-22T12:39:23;29.40;;;17.97;;
8654;SDS011;13500;52.514;13.462;2024-03-22T12:41:51;30.37;;;19.77;;
8654;SDS011;13500;52.514;13.462;2024-03-22T12:44:20;34.17;;;20.57;;
8654;SDS011;13500;52.514;13.462;2024-03-22T12:46:52;30.23;;;20.23;;
8654;SDS011;13500;52.514;13.462;2024-03-22T12:49:20;33.00;;;21.10;;
8654;SDS011;13500;52.514;13.462;2024-03-22T12:51:52;33.80;;;22.93;;
8654;SDS011;13500;52.514;13.462;2024-03-22T12:54:20;36.87;;;21.27;;
8654;SDS011;13500;52.514;13.462;2024-03-22T12:56:50;33.03;;;19.53;;
8654;SDS011;13500;52.514;13.462;2024-03-22T12:59:19;34.60;;;21.03;;
8654;SDS011;13500;52.514;13.462;2024-03-22T13:01:47;35.00;;;20.90;;
8654;SDS011;13500;52.514;13.462;2024-03-22T13:04:17;38.07;;;22.03;;
8654;SDS011;13500;52.514;13.462;2024-03-22T13:06:45;35.43;;;20.10;;
8654;SDS011;13500;52.514;13.462;2024-03-22T13:09:13;38.80;;;20.63;;
8654;SDS011;13500;52.514;13.462;2024-03-22T13:11:57;34.33;;;20.33;;
8654;SDS011;13500;52.514;13.462;2024-03-22T13:14:27;30.63;;;20.37;;
8654;SDS011;13500;52.514;13.462;2024-03-22T13:16:55;36.60;;;21.77;;
8654;SDS011;13500;52.514;13.462;2024-03-22T13:19:25;39.97;;;22.47;;
8654;SDS011;13500;52.514;13.462;2024-03-22T13:21:53;34.20;;;20.63;;
8654;SDS011;13500;52.514;13.462;2024-03-22T13:24:23;29.97;;;17.37;;
8654;SDS011;13500;52.514;13.462;2024-03-22T13:26:53;34.70;;;18.27;;
8654;SDS011;13500;52.514;13.462;2024-03-22T13:29:21;25.97;;;16.73;;
8654;SDS011;13500;52.514;13.462;2024-03-22T13:31:48;32.87;;;18.23;;
8654;SDS011;13500;52.514;13.462;2024-03-22T13:34:16;27.67;;;16.43;;
8654;SDS011;13500;52.514;13.462;2024-03-22T13:36:44;27.60;;;16.30;;
8654;SDS011;13500;52.514;13.462;2024-03-22T13:39:13;28.37;;;15.73;;
8654;SDS011;13500;52.514;13.462;2024-03-22T13:41:42;27.80;;;16.30;;
8654;SDS011;13500;52.514;13.462;2024-03-22T13:44:10;27.43;;;16.77;;
8654;SDS011;13500;52.514;13.462;2024-03-22T13:46:37;27.50;;;17.77;;
8654;SDS011;13500;52.514;13.462;2024-03-22T13:49:12;25.13;;;15.43;;
8654;SDS011;13500;52.514;13.462;2024-03-22T13:51:41;22.87;;;15.23;;
8654;SDS011;13500;52.514;13.462;2024-03-22T13:54:12;20.67;;;13.40;;
8654;SDS011;13500;52.514;13.462;2024-03-22T13:56:39;20.60;;;13.97;;
8654;SDS011;13500;52.514;13.462;2024-03-22T13:59:08;16.50;;;11.37;;
8654;SDS011;13500;52.514;13.462;2024-03-22T14:01:40;16.57;;;11.63;;
8654;SDS011;13500;52.514;13.462;2024-03-22T14:04:10;18.90;;;11.13;;
8654;SDS011;13500;52.514;13.462;2024-03-22T14:06:37;21.33;;;13.87;;
8654;SDS011;13500;52.514;13.462;2024-03-22T14:09:07;23.90;;;15.67;;
8654;SDS011;13500;52.514;13.462;2024-03-22T14:11:35;26.33;;;16.73;;
8654;SDS011;13500;52.514;13.462;2024-03-22T14:14:04;33.70;;;21.03;;
8654;SDS011;13500;52.514;13.462;2024-03-22T14:16:34;41.80;;;24.33;;
8654;SDS011;13500;52.514;13.462;2024-03-22T14:19:02;40.10;;;24.30;;
8654;SDS011;13500;52.514;13.462;2024-03-22T14:21:29;42.97;;;25.03;;
8654;SDS011;13500;52.514;13.462;2024-03-22T14:24:01;30.07;;;19.37;;
8654;SDS011;13500;52.514;13.462;2024-03-22T14:26:31;35.07;;;21.23;;
8654;SDS011;13500;52.514;13.462;2024-03-22T14:29:03;40.23;;;25.77;;
8654;SDS011;13500;52.514;13.462;2024-03-22T14:31:31;32.50;;;20.23;;
8654;SDS011;13500;52.514;13.462;2024-03-22T14:33:59;33.90;;;20.57;;
8654;SDS011;13500;52.514;13.462;2024-03-22T14:36:26;30.70;;;20.10;;